createdAt,value
2018-02-07T00:01:18.106Z,90.00
2018-02-07T00:03:46.397Z,89.80
2018-02-07T00:06:14.707Z,90.00
2018-02-07T00:08:42.326Z,89.90
2018-02-07T00:11:09.857Z,90.00
2018-02-07T00:13:37.394Z,90.10
2018-02-07T00:16:06.084Z,90.00
2018-02-07T00:18:34.378Z,90.10
2018-02-07T00:21:01.914Z,90.00
2018-02-07T00:23:30.231Z,90.10
2018-02-07T00:25:57.769Z,90.10
2018-02-07T00:28:26.148Z,90.20
2018-02-07T00:30:54.559Z,90.30
2018-02-07T00:33:22.089Z,90.30
2018-02-07T00:35:50.402Z,90.40
2018-02-07T00:38:17.928Z,90.40
2018-02-07T00:40:45.590Z,90.40
2018-02-07T00:43:13.204Z,90.40
2018-02-07T00:45:40.716Z,90.40
2018-02-07T00:48:08.297Z,90.30
2018-02-07T00:50:35.845Z,90.30
2018-02-07T00:53:03.418Z,90.70
2018-02-07T00:55:31.025Z,90.60
2018-02-07T00:57:59.389Z,90.40
2018-02-07T01:00:27.694Z,90.40
2018-02-07T01:02:55.215Z,90.40
2018-02-07T01:05:22.776Z,90.40
2018-02-07T01:07:50.312Z,90.30
2018-02-07T01:10:17.857Z,90.30
2018-02-07T01:12:45.443Z,90.40
2018-02-07T01:15:12.996Z,90.60
2018-02-07T01:17:40.536Z,90.20
2018-02-07T01:20:08.839Z,90.20
2018-02-07T01:22:36.372Z,90.20
2018-02-07T01:25:04.656Z,90.30
2018-02-07T01:27:32.957Z,90.10
2018-02-07T01:30:00.516Z,90.10
2018-02-07T01:32:28.050Z,90.20
2018-02-07T01:34:55.562Z,90.10
2018-02-07T01:37:23.179Z,90.10
2018-02-07T01:39:50.727Z,90.10
2018-02-07T01:42:18.273Z,90.10
2018-02-07T01:44:45.860Z,90.00
2018-02-07T01:47:13.397Z,90.10
2018-02-07T01:49:40.929Z,90.10
2018-02-07T01:52:09.232Z,90.30
2018-02-07T01:54:36.778Z,90.30
2018-02-07T01:57:05.073Z,90.40
2018-02-07T01:59:32.684Z,90.40
2018-02-07T02:02:00.211Z,90.50
2018-02-07T02:04:27.740Z,90.70
2018-02-07T02:06:55.291Z,90.70
2018-02-07T02:09:22.828Z,91.20
2018-02-07T02:11:50.357Z,90.80
2018-02-07T02:14:17.902Z,91.00
2018-02-07T02:16:46.203Z,91.00
2018-02-07T02:19:14.515Z,91.00
2018-02-07T02:21:42.085Z,91.00
2018-02-07T02:24:09.612Z,91.00
2018-02-07T02:26:37.905Z,91.50
2018-02-07T02:29:05.432Z,91.10
2018-02-07T02:31:33.050Z,91.10
2018-02-07T02:34:00.567Z,91.10
2018-02-07T02:36:39.904Z,91.10
2018-02-07T02:39:07.613Z,91.10
2018-02-07T02:41:35.144Z,91.50
2018-02-07T02:44:03.442Z,91.40
2018-02-07T02:46:31.730Z,91.30
2018-02-07T02:49:00.048Z,91.30
2018-02-07T02:51:27.576Z,91.30
2018-02-07T02:53:55.884Z,91.40
2018-02-07T02:56:23.473Z,91.40
2018-02-07T02:58:51.002Z,91.50
2018-02-07T03:01:18.552Z,91.60
2018-02-07T03:03:46.891Z,91.50
2018-02-07T03:06:14.460Z,91.50
2018-02-07T03:08:41.984Z,91.40
2018-02-07T03:11:09.537Z,91.50
2018-02-07T03:13:37.113Z,91.40
2018-02-07T03:16:05.418Z,91.40
2018-02-07T03:18:32.951Z,91.40
2018-02-07T03:21:00.469Z,91.40
2018-02-07T03:23:27.991Z,91.40
2018-02-07T03:25:55.519Z,91.50
2018-02-07T03:28:23.816Z,92.00
2018-02-07T03:30:52.105Z,91.80
2018-02-07T03:33:19.642Z,91.70
2018-02-07T03:35:47.209Z,91.70
2018-02-07T03:38:14.792Z,91.70
2018-02-07T03:40:43.175Z,91.90
2018-02-07T03:43:11.485Z,91.80
2018-02-07T03:45:39.008Z,91.80
2018-02-07T03:48:06.536Z,91.80
2018-02-07T03:50:34.383Z,91.60
2018-02-07T03:53:02.741Z,91.50
2018-02-07T03:55:31.052Z,91.60
2018-02-07T03:57:58.614Z,91.60
2018-02-07T04:00:26.154Z,91.70
2018-02-07T04:02:55.399Z,91.70
2018-02-07T04:05:22.949Z,91.70
2018-02-07T04:07:50.472Z,91.70
2018-02-07T04:10:18.014Z,91.80
2018-02-07T04:12:45.531Z,91.80
2018-02-07T04:15:13.068Z,91.80
2018-02-07T04:17:40.608Z,91.70
2018-02-07T04:20:08.159Z,91.70
2018-02-07T04:22:35.702Z,91.70
2018-02-07T04:25:03.240Z,91.70
2018-02-07T04:27:31.537Z,91.80
2018-02-07T04:29:59.848Z,91.60
2018-02-07T04:32:27.424Z,91.60
2018-02-07T04:34:55.069Z,91.50
2018-02-07T04:37:22.624Z,91.40
2018-02-07T04:39:50.220Z,91.50
2018-02-07T04:42:17.748Z,91.50
2018-02-07T04:44:45.293Z,91.50
2018-02-07T04:47:12.844Z,91.40
2018-02-07T04:49:40.384Z,91.50
2018-02-07T04:52:07.884Z,91.60
2018-02-07T04:54:35.404Z,91.60
2018-02-07T04:57:02.927Z,91.40
2018-02-07T04:59:31.248Z,91.80
2018-02-07T05:01:58.854Z,91.70
2018-02-07T05:04:26.439Z,91.80
2018-02-07T05:06:54.736Z,92.00
2018-02-07T05:09:22.264Z,92.00
2018-02-07T05:11:49.829Z,92.10
2018-02-07T05:14:17.370Z,92.10
2018-02-07T05:16:44.892Z,92.10
2018-02-07T05:19:12.411Z,92.00
2018-02-07T05:21:39.930Z,92.10
2018-02-07T05:24:07.542Z,92.10
2018-02-07T05:26:35.129Z,92.10
2018-02-07T05:29:02.647Z,92.10
2018-02-07T05:31:30.198Z,92.20
2018-02-07T05:33:57.748Z,92.10
2018-02-07T05:36:26.084Z,92.20
2018-02-07T05:38:53.624Z,92.20
2018-02-07T05:41:21.173Z,92.30
2018-02-07T05:43:48.749Z,92.50
2018-02-07T05:46:16.300Z,92.40
2018-02-07T05:48:43.847Z,92.40
2018-02-07T05:51:12.151Z,92.40
2018-02-07T05:53:39.683Z,92.40
2018-02-07T05:56:07.288Z,92.40
2018-02-07T05:58:34.825Z,92.20
2018-02-07T06:01:03.169Z,92.30
2018-02-07T06:03:31.179Z,92.30
2018-02-07T06:05:58.840Z,92.40
2018-02-07T06:08:26.376Z,92.40
2018-02-07T06:10:53.899Z,92.40
2018-02-07T06:13:21.472Z,92.30
2018-02-07T06:15:49.002Z,92.30
2018-02-07T06:18:16.562Z,92.20
2018-02-07T06:20:44.076Z,92.20
2018-02-07T06:23:11.598Z,92.20
2018-02-07T06:25:39.201Z,92.10
2018-02-07T06:28:06.722Z,92.20
2018-02-07T06:30:34.257Z,92.30
2018-02-07T06:33:01.797Z,92.20
2018-02-07T06:35:29.330Z,92.20
2018-02-07T06:37:57.744Z,92.60
2018-02-07T06:40:25.260Z,92.20
2018-02-07T06:42:52.789Z,92.20
2018-02-07T06:45:20.400Z,92.20
2018-02-07T06:47:47.923Z,92.00
2018-02-07T06:50:15.497Z,91.90
2018-02-07T06:52:43.120Z,91.90
2018-02-07T06:55:11.423Z,91.90
2018-02-07T06:57:38.979Z,91.90
2018-02-07T07:00:06.490Z,91.90
2018-02-07T07:02:34.047Z,91.90
2018-02-07T07:05:01.589Z,91.90
2018-02-07T07:07:29.120Z,92.00
2018-02-07T07:09:57.425Z,92.20
2018-02-07T07:12:24.961Z,92.20
2018-02-07T07:14:53.285Z,92.20
2018-02-07T07:17:20.823Z,92.10
2018-02-07T07:19:49.121Z,91.90
2018-02-07T07:22:16.636Z,91.90
2018-02-07T07:24:44.165Z,91.90
2018-02-07T07:27:11.734Z,92.10
2018-02-07T07:29:39.258Z,92.20
2018-02-07T07:32:07.608Z,92.30
2018-02-07T07:34:35.093Z,92.20
2018-02-07T07:37:02.616Z,92.20
2018-02-07T07:39:30.235Z,92.20
2018-02-07T07:41:58.730Z,92.10
2018-02-07T07:44:27.031Z,92.10
2018-02-07T07:46:54.561Z,92.10
2018-02-07T07:49:22.857Z,92.20
2018-02-07T07:51:51.176Z,92.10
2018-02-07T07:54:18.708Z,92.00
2018-02-07T07:56:47.004Z,91.70
2018-02-07T07:59:14.536Z,91.70
2018-02-07T08:01:42.060Z,91.50
2018-02-07T08:04:09.640Z,91.20
2018-02-07T08:06:37.168Z,91.10
2018-02-07T08:09:04.678Z,91.00
2018-02-07T08:11:32.201Z,90.90
2018-02-07T08:13:59.739Z,90.70
2018-02-07T08:16:28.060Z,90.70
2018-02-07T08:18:55.631Z,90.70
2018-02-07T08:21:23.182Z,90.50
2018-02-07T08:23:50.714Z,90.40
2018-02-07T08:26:19.076Z,90.40
2018-02-07T08:28:46.628Z,90.40
2018-02-07T08:31:14.164Z,90.60
2018-02-07T08:33:41.714Z,90.20
2018-02-07T08:36:09.248Z,90.20
2018-02-07T08:38:37.553Z,89.80
2018-02-07T08:41:05.881Z,89.90
2018-02-07T08:43:33.470Z,89.90
2018-02-07T08:46:01.025Z,89.70
2018-02-07T08:48:28.549Z,89.70
2018-02-07T08:50:56.080Z,89.30
2018-02-07T08:53:24.392Z,88.60
2018-02-07T08:55:51.943Z,88.50
2018-02-07T08:58:19.568Z,88.20
2018-02-07T09:00:47.106Z,87.70
2018-02-07T09:03:14.860Z,87.30
2018-02-07T09:05:42.404Z,86.90
2018-02-07T09:08:10.688Z,86.50
2018-02-07T09:10:38.226Z,86.40
2018-02-07T09:13:05.870Z,86.10
2018-02-07T09:15:33.400Z,85.60
2018-02-07T09:18:01.229Z,85.60
2018-02-07T09:20:28.782Z,85.30
2018-02-07T09:22:56.304Z,84.80
2018-02-07T09:25:23.832Z,84.60
2018-02-07T09:27:51.361Z,84.20
2018-02-07T09:30:20.096Z,83.50
2018-02-07T09:32:48.393Z,82.70
2018-02-07T09:35:15.924Z,82.70
2018-02-07T09:37:43.486Z,82.80
2018-02-07T09:40:11.011Z,82.30
2018-02-07T09:42:38.621Z,82.50
2018-02-07T09:45:06.259Z,82.80
2018-02-07T09:47:33.963Z,82.90
2018-02-07T09:50:01.676Z,82.30
2018-02-07T09:52:29.243Z,81.60
2018-02-07T09:54:57.635Z,81.80
2018-02-07T09:57:25.187Z,80.90
2018-02-07T09:59:52.732Z,80.90
2018-02-07T10:02:21.035Z,79.90
2018-02-07T10:04:48.581Z,79.90
2018-02-07T10:07:16.888Z,79.30
2018-02-07T10:09:44.412Z,79.20
2018-02-07T10:12:12.289Z,78.70
2018-02-07T10:14:40.592Z,80.30
2018-02-07T10:17:08.137Z,79.60
2018-02-07T10:19:36.441Z,78.40
2018-02-07T10:22:04.554Z,78.30
2018-02-07T10:24:32.144Z,78.10
2018-02-07T10:26:59.664Z,78.40
2018-02-07T10:29:27.216Z,78.80
2018-02-07T10:31:54.738Z,78.90
2018-02-07T10:34:22.279Z,77.90
2018-02-07T10:36:49.812Z,78.00
2018-02-07T10:39:18.110Z,76.70
2018-02-07T10:41:45.637Z,76.70
2018-02-07T10:44:13.168Z,77.30
2018-02-07T10:46:41.616Z,77.70
2018-02-07T10:49:09.473Z,77.90
2018-02-07T10:51:37.785Z,77.60
2018-02-07T10:54:05.440Z,77.50
2018-02-07T10:56:32.948Z,77.70
2018-02-07T10:59:00.489Z,78.00
2018-02-07T11:01:28.157Z,77.60
2018-02-07T11:03:55.687Z,77.10
2018-02-07T11:06:23.986Z,76.40
2018-02-07T11:08:51.524Z,76.40
2018-02-07T11:11:19.849Z,77.40
2018-02-07T11:13:47.372Z,77.30
2018-02-07T11:16:15.667Z,76.50
2018-02-07T11:18:43.245Z,76.50
2018-02-07T11:21:10.773Z,76.50
2018-02-07T11:23:38.343Z,76.90
2018-02-07T11:26:06.657Z,76.70
2018-02-07T11:28:34.205Z,76.60
2018-02-07T11:31:02.504Z,76.60
2018-02-07T11:33:30.021Z,76.60
2018-02-07T11:35:57.866Z,75.90
2018-02-07T11:38:25.374Z,75.90
2018-02-07T11:40:53.667Z,77.00
2018-02-07T11:43:21.973Z,75.90
2018-02-07T11:45:49.484Z,75.80
2018-02-07T11:48:17.063Z,75.70
2018-02-07T11:50:44.611Z,74.50
2018-02-07T11:53:12.272Z,76.30
2018-02-07T11:55:39.912Z,76.40
2018-02-07T11:58:07.424Z,75.30
2018-02-07T12:00:34.994Z,75.50
2018-02-07T12:03:02.631Z,74.60
2018-02-07T12:05:30.169Z,75.10
2018-02-07T12:07:57.700Z,74.80
2018-02-07T12:10:26.001Z,75.00
2018-02-07T12:12:53.640Z,75.00
2018-02-07T12:15:22.014Z,74.40
2018-02-07T12:17:49.528Z,74.00
2018-02-07T12:20:17.063Z,73.80
2018-02-07T12:22:45.344Z,73.20
2018-02-07T12:25:13.671Z,73.10
2018-02-07T12:27:41.260Z,73.00
2018-02-07T12:30:08.798Z,72.70
2018-02-07T12:32:36.360Z,71.10
2018-02-07T12:35:03.900Z,71.40
2018-02-07T12:37:32.322Z,70.20
2018-02-07T12:39:59.840Z,70.20
2018-02-07T12:42:28.141Z,70.20
2018-02-07T12:44:55.713Z,70.10
2018-02-07T12:47:23.266Z,70.10
2018-02-07T12:49:50.835Z,70.00
2018-02-07T12:52:19.125Z,69.80
2018-02-07T12:55:00.942Z,69.80
2018-02-07T13:07:13.528Z,68.80
2018-02-07T13:09:41.044Z,68.00
2018-02-07T13:12:08.613Z,66.60
2018-02-07T13:14:36.142Z,65.60
2018-02-07T13:17:03.664Z,66.20
2018-02-07T13:19:32.071Z,65.40
2018-02-07T13:21:59.688Z,65.40
2018-02-07T13:24:27.210Z,65.70
2018-02-07T13:26:54.749Z,66.20
2018-02-07T13:29:23.060Z,66.20
2018-02-07T13:31:50.688Z,66.20
2018-02-07T13:34:19.048Z,66.30
2018-02-07T13:36:46.600Z,66.30
2018-02-07T13:39:14.181Z,66.40
2018-02-07T13:41:41.735Z,66.20
2018-02-07T13:44:09.293Z,65.40
2018-02-07T13:46:36.827Z,66.30
2018-02-07T13:49:04.451Z,66.30
2018-02-07T13:51:31.977Z,66.80
2018-02-07T13:53:59.522Z,66.70
2018-02-07T13:56:27.092Z,66.90
2018-02-07T13:58:54.622Z,65.80
2018-02-07T14:01:22.925Z,66.40
2018-02-07T14:03:51.219Z,65.50
2018-02-07T14:06:18.750Z,65.50
2018-02-07T14:08:46.342Z,66.20
2018-02-07T14:11:13.916Z,66.50
2018-02-07T14:13:41.444Z,66.30
2018-02-07T14:16:09.735Z,66.50
2018-02-07T14:18:38.315Z,67.50
2018-02-07T14:21:05.862Z,67.40
2018-02-07T14:23:33.400Z,68.10
2018-02-07T14:26:00.997Z,68.30
2018-02-07T14:28:28.532Z,69.00
2018-02-07T14:30:56.066Z,68.90
2018-02-07T14:33:24.342Z,69.60
2018-02-07T14:35:52.638Z,70.00
2018-02-07T14:38:20.218Z,70.00
2018-02-07T14:40:47.748Z,69.80
2018-02-07T14:43:16.049Z,69.50
2018-02-07T14:45:43.597Z,69.50
2018-02-07T14:48:12.007Z,68.80
2018-02-07T14:50:39.514Z,68.70
2018-02-07T14:53:07.077Z,68.40
2018-02-07T14:55:34.617Z,67.50
2018-02-07T14:58:02.165Z,67.10
2018-02-07T15:00:29.701Z,66.50
2018-02-07T15:02:58.001Z,67.60
2018-02-07T15:05:26.301Z,67.50
2018-02-07T15:07:53.849Z,67.40
2018-02-07T15:10:22.193Z,67.90
2018-02-07T15:12:49.710Z,67.90
2018-02-07T15:15:17.230Z,68.60
2018-02-07T15:17:44.768Z,68.00
2018-02-07T15:20:12.296Z,68.00
2018-02-07T15:22:39.914Z,67.80
2018-02-07T15:25:07.433Z,67.20
2018-02-07T15:27:34.924Z,68.20
2018-02-07T15:30:02.478Z,69.00
2018-02-07T15:32:30.039Z,68.70
2018-02-07T15:34:57.672Z,69.10
2018-02-07T15:37:25.969Z,70.00
2018-02-07T15:39:54.091Z,70.00
2018-02-07T15:42:21.618Z,70.30
2018-02-07T15:44:49.150Z,70.60
2018-02-07T15:47:16.759Z,70.90
2018-02-07T15:49:44.724Z,71.10
2018-02-07T15:52:12.264Z,72.00
2018-02-07T15:54:40.555Z,72.70
2018-02-07T15:57:08.873Z,73.60
2018-02-07T15:59:36.421Z,73.60
2018-02-07T16:02:04.369Z,73.60
2018-02-07T16:04:32.718Z,73.80
2018-02-07T16:07:00.346Z,73.70
2018-02-07T16:09:27.881Z,73.30
2018-02-07T16:11:56.188Z,72.90
2018-02-07T16:14:23.760Z,72.70
2018-02-07T16:16:51.313Z,72.90
2018-02-07T16:19:18.848Z,72.90
2018-02-07T16:21:46.446Z,73.10
2018-02-07T16:24:14.020Z,73.00
2018-02-07T16:26:41.938Z,73.10
2018-02-07T16:29:09.482Z,73.30
2018-02-07T16:31:37.029Z,73.40
2018-02-07T16:34:04.709Z,73.90
2018-02-07T16:36:32.254Z,73.80
2018-02-07T16:38:59.812Z,73.70
2018-02-07T16:41:27.500Z,74.40
2018-02-07T16:43:55.028Z,74.70
2018-02-07T16:46:23.324Z,75.20
2018-02-07T16:48:51.605Z,75.80
2018-02-07T16:51:19.942Z,76.40
2018-02-07T16:53:47.477Z,76.40
2018-02-07T16:56:15.077Z,76.70
2018-02-07T16:58:43.445Z,77.00
2018-02-07T17:01:10.973Z,77.50
2018-02-07T17:03:38.530Z,77.70
2018-02-07T17:06:06.826Z,77.80
2018-02-07T17:08:34.353Z,77.80
2018-02-07T17:11:01.860Z,78.20
2018-02-07T17:13:29.420Z,78.30
2018-02-07T17:15:57.105Z,78.90
2018-02-07T17:18:24.632Z,79.50
2018-02-07T17:20:52.927Z,79.50
2018-02-07T17:23:21.205Z,79.50
2018-02-07T17:25:49.510Z,79.20
2018-02-07T17:28:17.077Z,79.20
2018-02-07T17:30:44.663Z,79.10
2018-02-07T17:33:12.200Z,79.00
2018-02-07T17:35:39.728Z,79.10
2018-02-07T17:38:07.266Z,79.40
2018-02-07T17:40:34.856Z,80.30
2018-02-07T17:43:03.213Z,79.10
2018-02-07T17:45:30.811Z,79.10
2018-02-07T17:47:58.414Z,79.30
2018-02-07T17:50:26.082Z,79.30
2018-02-07T17:52:53.633Z,79.70
2018-02-07T17:55:21.975Z,80.10
2018-02-07T17:57:49.932Z,80.10
2018-02-07T18:00:18.373Z,81.40
2018-02-07T18:02:46.699Z,82.00
2018-02-07T18:05:14.246Z,81.90
2018-02-07T18:07:41.796Z,81.80
2018-02-07T18:10:09.339Z,81.80
2018-02-07T18:12:36.851Z,81.70
2018-02-07T18:15:04.414Z,81.70
2018-02-07T18:17:32.289Z,81.90
2018-02-07T18:19:59.812Z,81.80
2018-02-07T18:22:28.141Z,81.20
2018-02-07T18:24:55.699Z,81.20
2018-02-07T18:27:23.228Z,81.00
2018-02-07T18:29:51.881Z,80.80
2018-02-07T18:32:20.181Z,80.90
2018-02-07T18:34:47.736Z,81.50
2018-02-07T18:37:15.256Z,80.90
2018-02-07T18:39:42.841Z,81.40
2018-02-07T18:42:10.389Z,81.60
2018-02-07T18:44:37.951Z,81.10
2018-02-07T18:47:05.523Z,80.40
2018-02-07T18:49:33.110Z,80.40
2018-02-07T18:52:00.654Z,80.70
2018-02-07T18:54:28.285Z,81.10
2018-02-07T18:56:55.817Z,81.40
2018-02-07T18:59:23.371Z,81.80
2018-02-07T19:01:51.691Z,82.70
2018-02-07T19:04:19.240Z,83.40
2018-02-07T19:06:46.798Z,84.20
2018-02-07T19:09:15.097Z,85.30
2018-02-07T19:11:43.534Z,86.00
2018-02-07T19:14:11.083Z,85.50
2018-02-07T19:16:38.649Z,85.70
2018-02-07T19:19:06.286Z,86.10
2018-02-07T19:21:33.829Z,86.70
2018-02-07T19:24:01.441Z,86.70
2018-02-07T19:26:29.770Z,87.50
2018-02-07T19:28:57.349Z,87.50
2018-02-07T19:31:24.931Z,87.60
2018-02-07T19:33:52.522Z,87.60
2018-02-07T19:36:20.836Z,87.90
2018-02-07T19:38:48.369Z,87.90
2018-02-07T19:41:15.909Z,88.40
2018-02-07T19:43:43.942Z,88.20
2018-02-07T19:46:11.503Z,88.30
2018-02-07T19:48:39.073Z,88.50
2018-02-07T19:51:06.619Z,88.60
2018-02-07T19:53:34.406Z,88.90
2018-02-07T19:56:01.993Z,89.20
2018-02-07T19:58:29.584Z,89.70
2018-02-07T20:00:57.143Z,90.00
2018-02-07T20:03:24.717Z,90.00
2018-02-07T20:05:52.265Z,90.00
2018-02-07T20:08:19.838Z,90.20
2018-02-07T20:10:47.447Z,90.10
2018-02-07T20:13:15.009Z,90.10
2018-02-07T20:15:43.327Z,90.20
2018-02-07T20:18:10.884Z,90.20
2018-02-07T20:20:38.492Z,90.20
2018-02-07T20:23:06.031Z,90.60
2018-02-07T20:25:33.621Z,90.40
2018-02-07T20:28:01.156Z,90.40
2018-02-07T20:30:28.717Z,90.30
2018-02-07T20:32:56.413Z,90.20
2018-02-07T20:35:23.948Z,90.30
2018-02-07T20:37:51.503Z,90.30
2018-02-07T20:40:19.265Z,90.30
2018-02-07T20:42:46.828Z,90.20
2018-02-07T20:45:14.439Z,90.20
2018-02-07T20:47:41.969Z,90.10
2018-02-07T20:50:09.531Z,90.00
2018-02-07T20:52:37.053Z,90.00
2018-02-07T20:55:04.606Z,90.00
2018-02-07T20:57:32.180Z,90.10
2018-02-07T20:59:59.709Z,90.10
2018-02-07T21:02:27.255Z,90.20
2018-02-07T21:04:54.836Z,90.50
2018-02-07T21:07:22.432Z,90.20
2018-02-07T21:09:49.977Z,90.30
2018-02-07T21:12:17.519Z,90.40
2018-02-07T21:14:45.221Z,90.40
2018-02-07T21:17:12.762Z,90.30
2018-02-07T21:19:40.280Z,90.30
2018-02-07T21:22:08.617Z,90.50
2018-02-07T21:24:36.165Z,90.20
2018-02-07T21:27:03.723Z,90.20
2018-02-07T21:29:31.292Z,90.10
2018-02-07T21:31:58.853Z,90.00
2018-02-07T21:34:26.428Z,90.00
2018-02-07T21:36:53.971Z,89.80
2018-02-07T21:39:22.291Z,89.80
2018-02-07T21:41:49.882Z,89.80
2018-02-07T21:44:17.441Z,89.20
2018-02-07T21:46:45.013Z,89.30
2018-02-07T21:49:12.558Z,88.90
2018-02-07T21:51:40.116Z,89.00
2018-02-07T21:54:07.662Z,88.90
2018-02-07T21:56:35.289Z,88.90
2018-02-07T21:59:02.864Z,88.90
2018-02-07T22:01:31.245Z,88.70
2018-02-07T22:03:58.786Z,88.60
2018-02-07T22:06:26.341Z,88.60
2018-02-07T22:08:53.895Z,88.70
2018-02-07T22:11:21.432Z,88.80
2018-02-07T22:13:48.998Z,88.70
2018-02-07T22:16:16.588Z,88.70
2018-02-07T22:18:44.148Z,88.70
2018-02-07T22:21:11.756Z,88.80
2018-02-07T22:23:39.297Z,89.00
2018-02-07T22:26:06.930Z,89.20
2018-02-07T22:28:34.481Z,89.30
2018-02-07T22:31:02.785Z,89.00
2018-02-07T22:33:30.456Z,89.00
2018-02-07T22:35:57.977Z,89.10
2018-02-07T22:38:25.568Z,89.10
2018-02-07T22:40:53.887Z,89.00
2018-02-07T22:43:21.515Z,88.90
2018-02-07T22:45:49.893Z,88.80
2018-02-07T22:48:18.186Z,88.50
2018-02-07T22:50:46.507Z,88.00
2018-02-07T22:53:14.047Z,88.10
2018-02-07T22:55:41.576Z,88.30
2018-02-07T22:58:09.193Z,88.40
2018-02-07T23:00:36.733Z,88.40
2018-02-07T23:03:04.293Z,88.10
2018-02-07T23:05:32.591Z,88.10
2018-02-07T23:08:00.095Z,88.10
2018-02-07T23:10:27.744Z,88.10
2018-02-07T23:12:55.300Z,88.10
2018-02-07T23:15:22.923Z,88.10
2018-02-07T23:17:50.447Z,88.50
2018-02-07T23:20:17.982Z,88.60
2018-02-07T23:22:45.523Z,88.60
2018-02-07T23:25:13.070Z,88.10
2018-02-07T23:27:40.629Z,88.10
2018-02-07T23:30:08.169Z,88.10
2018-02-07T23:32:35.713Z,88.20
2018-02-07T23:35:03.235Z,87.80
2018-02-07T23:37:30.769Z,87.90
2018-02-07T23:39:58.706Z,87.90
2018-02-07T23:42:26.251Z,87.70
2018-02-07T23:44:54.551Z,87.80
2018-02-07T23:47:22.161Z,87.70
2018-02-07T23:49:49.672Z,87.90
2018-02-07T23:52:18.007Z,87.70
2018-02-07T23:54:45.540Z,87.60
2018-02-07T23:57:13.068Z,87.80
2018-02-07T23:59:40.599Z,88.10
